Time;durP1;ratioP1;P1;durP2;ratioP2;P2;SDS_P1;SDS_P2;PMS_P1;PMS_P2;Temp;Humidity;BMP_temperature;BMP_pressure;BME280_temperature;BME280_humidity;BME280_pressure;Samples;Min_cycle;Max_cycle;Signal;HPM_P1;HPM_P2
2024/02/11 00:01:19;;;;;;;;;;;;;;;10.95;92.40;97483.56;5114978;28;19972;-65
2024/02/11 00:03:49;;;;;;;;;;;;;;;10.92;92.71;97488.81;5114595;28;19919;-65
2024/02/11 00:06:17;;;;;;;;;;;;;;;10.89;92.85;97481.25;5114770;28;19968;-64
2024/02/11 00:08:48;;;;;;;;;;;;;;;10.89;93.09;97488.91;5114674;28;20365;-64
2024/02/11 00:11:16;;;;;;;;;;;;;;;10.81;93.46;97480.69;5114762;28;19967;-64
2024/02/11 00:13:45;;;;;;;;;;;;;;;10.76;93.66;97474.06;5114594;28;19924;-64
2024/02/11 00:16:14;;;;;;;;;;;;;;;10.76;93.90;97474.06;5114474;28;19927;-64
2024/02/11 00:18:43;;;;;;;;;;;;;;;10.74;94.15;97470.72;5114512;28;20357;-64
2024/02/11 00:21:13;;;;;;;;;;;;;;;10.75;94.41;97471.53;5114639;28;19923;-64
2024/02/11 00:23:44;;;;;;;;;;;;;;;10.73;94.23;97463.94;5114562;28;20396;-64
2024/02/11 00:26:13;;;;;;;;;;;;;;;10.75;94.51;97461.34;5114684;28;19973;-64
2024/02/11 00:28:42;;;;;;;;;;;;;;;10.73;94.23;97463.94;5113066;28;19919;-64
2024/02/11 00:31:12;;;;;;;;;;;;;;;10.76;94.38;97458.75;5114517;28;19920;-65
2024/02/11 00:33:40;;;;;;;;;;;;;;;10.77;94.30;97457.03;5114546;28;20250;-64
2024/02/11 00:36:09;;;;;;;;;;;;;;;10.78;94.02;97454.41;5114842;28;19959;-65
2024/02/11 00:38:39;;;;;;;;;;;;;;;10.80;94.12;97448.44;5116453;28;19919;-65
2024/02/11 00:41:08;;;;;;;;;;;;;;;10.78;94.13;97451.84;5121447;27;19919;-64
2024/02/11 00:43:37;;;;;;;;;;;;;;;10.80;93.89;97449.25;5120964;28;19923;-64
2024/02/11 00:46:07;;;;;;;;;;;;;;;10.83;93.91;97443.19;5120091;28;19930;-65
2024/02/11 00:48:35;;;;;;;;;;;;;;;10.86;93.88;97437.97;5121379;28;19926;-64
2024/02/11 00:51:05;;;;;;;;;;;;;;;10.93;93.51;97434.31;5120819;27;19919;-64
2024/02/11 00:53:33;;;;;;;;;;;;;;;10.97;93.36;97425.63;5121098;27;20365;-64
2024/02/11 00:56:03;;;;;;;;;;;;;;;10.97;93.34;97436.69;5121244;27;19932;-63
2024/02/11 00:58:33;;;;;;;;;;;;;;;10.99;93.13;97436.63;5121196;27;19967;-64
2024/02/11 01:01:04;;;;;;;;;;;;;;;10.99;93.34;97434.91;5121149;27;19920;-63
2024/02/11 01:03:34;;;;;;;;;;;;;;;11.01;93.37;97427.19;5121189;27;20359;-63
2024/02/11 01:06:03;;;;;;;;;;;;;;;11.03;93.57;97416.03;5120739;27;19950;-64
2024/02/11 01:08:31;;;;;;;;;;;;;;;11.05;93.48;97419.38;5120804;27;19919;-64
2024/02/11 01:11:00;;;;;;;;;;;;;;;11.04;93.54;97424.50;5120701;28;20387;-63
2024/02/11 01:13:30;;;;;;;;;;;;;;;11.06;93.52;97422.75;5118997;28;19920;-64
2024/02/11 01:15:59;;;;;;;;;;;;;;;11.05;93.59;97423.63;5121049;28;19975;-64
2024/02/11 01:18:27;;;;;;;;;;;;;;;11.05;93.64;97411.69;5120734;27;19926;-64
2024/02/11 01:20:56;;;;;;;;;;;;;;;11.03;93.74;97410.09;5120966;27;20347;-64
2024/02/11 01:23:24;;;;;;;;;;;;;;;11.05;93.85;97413.41;5120578;27;19919;-65
2024/02/11 01:25:52;;;;;;;;;;;;;;;11.04;93.81;97417.69;5120714;27;20015;-63
2024/02/11 01:28:21;;;;;;;;;;;;;;;11.05;93.61;97403.22;5120656;28;19920;-64
2024/02/11 01:30:51;;;;;;;;;;;;;;;11.05;93.66;97405.75;5120814;28;19927;-63
2024/02/11 01:33:19;;;;;;;;;;;;;;;11.06;93.93;97399.78;5119621;28;19919;-64
2024/02/11 01:35:48;;;;;;;;;;;;;;;11.05;93.77;97403.22;5121174;27;19919;-64
2024/02/11 01:38:16;;;;;;;;;;;;;;;11.06;93.77;97403.13;5120126;28;19924;-64
2024/02/11 01:40:45;;;;;;;;;;;;;;;11.07;93.61;97396.31;5120818;28;19969;-64
2024/02/11 01:43:13;;;;;;;;;;;;;;;11.07;93.66;97391.22;5119536;28;19956;-64
2024/02/11 01:45:41;;;;;;;;;;;;;;;11.06;93.37;97384.47;5119699;28;19920;-64
2024/02/11 01:48:11;;;;;;;;;;;;;;;11.06;93.67;97390.38;5120404;28;20405;-63
2024/02/11 01:50:41;;;;;;;;;;;;;;;11.07;93.71;97386.09;5117728;28;19951;-64
2024/02/11 01:53:10;;;;;;;;;;;;;;;11.07;93.53;97381.00;5117460;28;19927;-63
2024/02/11 01:55:39;;;;;;;;;;;;;;;11.11;93.53;97372.34;5117474;28;19919;-64
2024/02/11 01:58:08;;;;;;;;;;;;;;;11.14;93.36;97372.22;5116194;28;19920;-64
2024/02/11 02:00:38;;;;;;;;;;;;;;;11.15;93.38;97372.16;5117692;28;19958;-63
2024/02/11 02:03:07;;;;;;;;;;;;;;;11.15;92.73;97356.84;5117050;28;20026;-63
2024/02/11 02:05:37;;;;;;;;;;;;;;;11.17;92.45;97360.16;5099059;28;19927;-63
2024/02/11 02:08:08;;;;;;;;;;;;;;;11.19;92.46;97350.72;5117276;28;19931;-63
2024/02/11 02:10:37;;;;;;;;;;;;;;;11.17;92.39;97351.66;5117208;28;19930;-64
2024/02/11 02:13:06;;;;;;;;;;;;;;;11.18;91.91;97343.13;5098569;28;19920;-65
2024/02/11 02:15:34;;;;;;;;;;;;;;;11.23;91.39;97344.59;5117364;28;19927;-63
2024/02/11 02:18:03;;;;;;;;;;;;;;;11.24;91.20;97332.66;5110685;28;20281;-63
2024/02/11 02:20:32;;;;;;;;;;;;;;;11.25;90.95;97324.91;5096258;28;19924;-63
2024/02/11 02:23:02;;;;;;;;;;;;;;;11.24;90.78;97323.28;5096147;28;19920;-63
2024/02/11 02:25:32;;;;;;;;;;;;;;;11.24;90.83;97314.78;5096678;28;19923;-63
2024/02/11 02:28:04;;;;;;;;;;;;;;;11.23;90.78;97306.28;5096732;28;19927;-64
2024/02/11 02:30:33;;;;;;;;;;;;;;;11.25;90.73;97303.69;5096397;28;19920;-64
2024/02/11 02:33:02;;;;;;;;;;;;;;;11.24;90.37;97305.41;5096061;28;19965;-63
2024/02/11 02:35:31;;;;;;;;;;;;;;;11.27;90.25;97291.69;5096081;28;19924;-63
2024/02/11 02:38:00;;;;;;;;;;;;;;;11.26;90.24;97292.56;5095911;28;19920;-64
2024/02/11 02:40:31;;;;;;;;;;;;;;;11.27;90.13;97301.91;5095790;28;19920;-63
2024/02/11 02:43:06;;;;;;;;;;;;;;;11.27;90.06;97305.28;5096059;28;19962;-64
2024/02/11 02:45:35;;;;;;;;;;;;;;;11.27;89.90;97307.00;5095834;28;19920;-64
2024/02/11 02:48:04;;;;;;;;;;;;;;;11.27;89.90;97296.78;5095796;28;19920;-63
2024/02/11 02:50:32;;;;;;;;;;;;;;;11.26;89.79;97295.13;5095834;28;19926;-64
2024/02/11 02:53:01;;;;;;;;;;;;;;;11.25;89.86;97288.38;5094782;28;19920;-64
2024/02/11 02:55:30;;;;;;;;;;;;;;;11.23;89.91;97295.25;5095577;28;19973;-64
2024/02/11 02:57:59;;;;;;;;;;;;;;;11.22;89.88;97291.88;5094834;28;19943;-64
2024/02/11 03:00:27;;;;;;;;;;;;;;;11.24;89.67;97284.16;5095770;28;19930;-63
2024/02/11 03:02:56;;;;;;;;;;;;;;;11.25;89.78;97273.06;5095794;28;20068;-64
2024/02/11 03:05:24;;;;;;;;;;;;;;;11.24;89.45;97272.22;5094559;28;20018;-63
2024/02/11 03:07:53;;;;;;;;;;;;;;;11.25;89.26;97267.94;5095596;28;19924;-63
2024/02/11 03:10:22;;;;;;;;;;;;;;;11.25;89.31;97271.31;5095217;28;19927;-64
2024/02/11 03:12:52;;;;;;;;;;;;;;;11.24;89.07;97266.28;5095891;28;19920;-63
2024/02/11 03:15:21;;;;;;;;;;;;;;;11.23;88.86;97274.81;5095424;28;19920;-64
2024/02/11 03:17:49;;;;;;;;;;;;;;;11.22;88.55;97268.06;5094380;28;19920;-65
2024/02/11 03:20:18;;;;;;;;;;;;;;;11.22;88.48;97270.63;5094225;28;20325;-64
2024/02/11 03:22:47;;;;;;;;;;;;;;;11.21;88.30;97271.50;5093975;28;19928;-63
2024/02/11 03:25:15;;;;;;;;;;;;;;;11.21;87.75;97266.41;5095285;28;19981;-63
2024/02/11 03:27:45;;;;;;;;;;;;;;;11.25;87.45;97257.75;5094066;28;19955;-64
2024/02/11 03:30:17;;;;;;;;;;;;;;;11.25;86.87;97263.66;5095157;28;19920;-64
2024/02/11 03:32:47;;;;;;;;;;;;;;;11.28;85.95;97253.31;5095398;28;19927;-64
2024/02/11 03:35:16;;;;;;;;;;;;;;;11.31;85.60;97262.56;5095268;28;19920;-64
2024/02/11 03:37:44;;;;;;;;;;;;;;;11.32;84.95;97248.94;5094940;28;20014;-65
2024/02/11 03:40:16;;;;;;;;;;;;;;;11.37;84.47;97260.56;5094192;28;19955;-63
2024/02/11 03:42:45;;;;;;;;;;;;;;;11.40;84.38;97257.06;5094772;28;19958;-63
2024/02/11 03:45:18;;;;;;;;;;;;;;;11.41;84.17;97263.84;5093804;28;19969;-63
2024/02/11 03:47:48;;;;;;;;;;;;;;;11.43;83.57;97254.38;5095106;28;19920;-63
2024/02/11 03:50:19;;;;;;;;;;;;;;;11.45;83.23;97242.38;5094126;28;20022;-63
2024/02/11 03:52:48;;;;;;;;;;;;;;;11.48;82.86;97242.25;5094859;28;19920;-63
2024/02/11 03:55:16;;;;;;;;;;;;;;;11.52;82.34;97241.22;5094906;28;20316;-64
2024/02/11 03:57:45;;;;;;;;;;;;;;;11.52;81.73;97241.22;5094884;28;19926;-63
2024/02/11 04:00:16;;;;;;;;;;;;;;;11.51;81.87;97241.28;5094879;28;19943;-64
2024/02/11 04:02:44;;;;;;;;;;;;;;;11.51;81.33;97244.69;5094482;28;19959;-64
2024/02/11 04:05:15;;;;;;;;;;;;;;;11.51;81.17;97239.56;5094815;28;19920;-63
2024/02/11 04:07:46;;;;;;;;;;;;;;;11.54;80.96;97259.84;5092900;28;19927;-63
2024/02/11 04:10:22;;;;;;;;;;;;;;;11.58;80.72;97235.84;5094782;28;19927;-64
2024/02/11 04:12:53;;;;;;;;;;;;;;;11.62;79.94;97227.16;5094102;28;19959;-63
2024/02/11 04:15:23;;;;;;;;;;;;;;;11.64;79.17;97230.47;5093083;28;19959;-64
2024/02/11 04:17:53;;;;;;;;;;;;;;;11.66;79.46;97227.84;5094568;28;20019;-63
2024/02/11 04:20:26;;;;;;;;;;;;;;;11.65;79.86;97227.03;5094369;28;20376;-64
2024/02/11 04:22:57;;;;;;;;;;;;;;;11.61;80.14;97225.50;5093254;28;19924;-64
2024/02/11 04:25:29;;;;;;;;;;;;;;;11.62;80.04;97227.16;5094401;28;19923;-63
2024/02/11 04:27:58;;;;;;;;;;;;;;;11.63;79.86;97231.38;5093300;28;19920;-63
2024/02/11 04:30:28;;;;;;;;;;;;;;;11.65;79.41;97227.03;5094145;28;20336;-63
2024/02/11 04:32:59;;;;;;;;;;;;;;;11.66;79.57;97222.75;5093054;28;19920;-64
2024/02/11 04:35:29;;;;;;;;;;;;;;;11.60;80.12;97218.72;5094517;28;19969;-64
2024/02/11 04:37:59;;;;;;;;;;;;;;;11.58;80.15;97219.69;5094430;28;19973;-64
2024/02/11 04:40:28;;;;;;;;;;;;;;;11.53;80.71;97216.50;5094019;28;19920;-64
2024/02/11 04:42:57;;;;;;;;;;;;;;;11.48;81.72;97219.28;5093904;28;19920;-64
2024/02/11 04:45:27;;;;;;;;;;;;;;;11.44;81.33;97217.75;5094353;28;19920;-64
2024/02/11 04:47:58;;;;;;;;;;;;;;;11.44;81.30;97227.97;5094605;28;19927;-64
2024/02/11 04:50:28;;;;;;;;;;;;;;;11.44;80.80;97212.66;5094368;28;20001;-64
2024/02/11 04:52:58;;;;;;;;;;;;;;;11.45;80.86;97219.41;5094047;28;20259;-65
2024/02/11 04:55:27;;;;;;;;;;;;;;;11.47;80.49;97221.91;5094246;28;20267;-64
2024/02/11 04:57:58;;;;;;;;;;;;;;;11.48;79.99;97219.28;5094105;28;19919;-64
2024/02/11 05:00:28;;;;;;;;;;;;;;;11.50;79.74;97217.47;5094252;28;19920;-63
2024/02/11 05:02:59;;;;;;;;;;;;;;;11.51;79.22;97208.91;5094115;28;20370;-63
2024/02/11 05:05:29;;;;;;;;;;;;;;;11.53;79.34;97222.44;5094161;28;19953;-64
2024/02/11 05:08:00;;;;;;;;;;;;;;;11.51;79.25;97214.03;5093754;28;19920;-65
2024/02/11 05:10:30;;;;;;;;;;;;;;;11.54;79.04;97213.88;5094183;28;19920;-63
2024/02/11 05:12:59;;;;;;;;;;;;;;;11.48;79.78;97211.59;5094621;28;19927;-64
2024/02/11 05:15:29;;;;;;;;;;;;;;;11.43;79.94;97213.53;5094013;28;19920;-64
2024/02/11 05:17:58;;;;;;;;;;;;;;;11.40;80.13;97216.22;5093196;28;19920;-63
2024/02/11 05:20:27;;;;;;;;;;;;;;;11.37;80.34;97216.38;5093563;28;20015;-64
2024/02/11 05:22:56;;;;;;;;;;;;;;;11.32;80.54;97218.28;5093660;28;20292;-64
2024/02/11 05:25:25;;;;;;;;;;;;;;;11.30;80.56;97214.97;5093966;28;19927;-64
2024/02/11 05:27:56;;;;;;;;;;;;;;;11.29;80.81;97210.75;5097803;28;20365;-64
2024/02/11 05:30:26;;;;;;;;;;;;;;;11.27;81.16;97220.19;5097446;28;19920;-64
2024/02/11 05:32:57;;;;;;;;;;;;;;;11.25;80.95;97216.91;5097800;28;20263;-64
2024/02/11 05:35:27;;;;;;;;;;;;;;;11.25;80.77;97222.00;5097277;28;19927;-64
2024/02/11 05:37:58;;;;;;;;;;;;;;;11.24;81.05;97226.28;5097597;28;19921;-65
2024/02/11 05:40:27;;;;;;;;;;;;;;;11.23;80.59;97218.66;5097911;28;20393;-64
2024/02/11 05:42:56;;;;;;;;;;;;;;;11.21;80.29;97220.44;5097632;28;19920;-63
2024/02/11 05:45:25;;;;;;;;;;;;;;;11.21;80.24;97220.44;5097299;28;20274;-63
2024/02/11 05:47:54;;;;;;;;;;;;;;;11.20;79.89;97222.19;5096117;28;20011;-64
2024/02/11 05:50:26;;;;;;;;;;;;;;;11.19;80.33;97214.59;5097318;28;19924;-64
2024/02/11 05:52:56;;;;;;;;;;;;;;;11.18;80.51;97210.41;5097368;28;19919;-64
2024/02/11 05:55:26;;;;;;;;;;;;;;;11.20;80.30;97221.38;5097236;28;19920;-63
2024/02/11 05:57:54;;;;;;;;;;;;;;;11.24;79.74;97220.31;5096318;28;20011;-64
2024/02/11 06:00:24;;;;;;;;;;;;;;;11.26;79.96;97224.47;5097178;28;19924;-64
2024/02/11 06:02:54;;;;;;;;;;;;;;;11.25;80.21;97222.00;5096793;28;20378;-64
2024/02/11 06:05:25;;;;;;;;;;;;;;;11.23;80.22;97221.22;5095821;28;19990;-64
2024/02/11 06:07:55;;;;;;;;;;;;;;;11.23;80.33;97222.03;5097107;28;19974;-64
2024/02/11 06:10:25;;;;;;;;;;;;;;;11.21;80.58;97230.66;5096599;28;19920;-64
2024/02/11 06:12:54;;;;;;;;;;;;;;;11.21;80.54;97223.00;5096960;28;19923;-64
2024/02/11 06:15:24;;;;;;;;;;;;;;;11.19;80.75;97222.25;5096603;28;19999;-63
2024/02/11 06:17:53;;;;;;;;;;;;;;;11.16;80.92;97217.25;5096609;28;19924;-65
2024/02/11 06:20:23;;;;;;;;;;;;;;;11.14;81.22;97225.00;5095748;28;19924;-63
2024/02/11 06:22:54;;;;;;;;;;;;;;;11.14;81.08;97235.19;5095258;28;20323;-64
2024/02/11 06:25:23;;;;;;;;;;;;;;;11.17;81.17;97239.34;5096398;28;19924;-63
2024/02/11 06:27:52;;;;;;;;;;;;;;;11.17;81.39;97254.66;5095381;28;19920;-64
2024/02/11 06:30:22;;;;;;;;;;;;;;;11.15;81.01;97247.09;5096378;28;19974;-64
2024/02/11 06:32:51;;;;;;;;;;;;;;;11.17;80.78;97259.78;5096439;28;20291;-64
2024/02/11 06:35:21;;;;;;;;;;;;;;;11.18;80.70;97252.03;5096252;28;19967;-64
2024/02/11 06:37:51;;;;;;;;;;;;;;;11.19;80.42;97252.88;5095517;28;19959;-63
2024/02/11 06:40:23;;;;;;;;;;;;;;;11.18;80.44;97241.81;5096324;28;19974;-64
2024/02/11 06:42:52;;;;;;;;;;;;;;;11.19;80.04;97252.88;5096199;28;19927;-64
2024/02/11 06:45:22;;;;;;;;;;;;;;;11.19;79.81;97257.97;5095983;28;20281;-64
2024/02/11 06:47:52;;;;;;;;;;;;;;;11.21;78.86;97266.41;5096283;28;20309;-64
2024/02/11 06:50:21;;;;;;;;;;;;;;;11.24;78.53;97271.38;5094716;28;20393;-63
2024/02/11 06:52:50;;;;;;;;;;;;;;;11.24;78.50;97268.84;5095465;28;19927;-64
2024/02/11 06:55:21;;;;;;;;;;;;;;;11.22;78.53;97274.00;5096219;28;20277;-64
2024/02/11 06:57:51;;;;;;;;;;;;;;;11.22;78.89;97283.38;5095690;28;19920;-64
2024/02/11 07:00:20;;;;;;;;;;;;;;;11.17;79.03;97270.81;5096296;28;19920;-63
2024/02/11 07:02:52;;;;;;;;;;;;;;;11.15;79.48;97271.78;5095962;28;20019;-63
2024/02/11 07:05:23;;;;;;;;;;;;;;;11.14;79.10;97265.00;5095963;28;19920;-63
2024/02/11 07:07:51;;;;;;;;;;;;;;;11.15;78.80;97271.78;5095442;28;19920;-63
2024/02/11 07:10:26;;;;;;;;;;;;;;;11.17;78.64;97269.97;5094679;28;20283;-63
2024/02/11 07:12:57;;;;;;;;;;;;;;;11.16;78.63;97270.88;5095769;28;19926;-63
2024/02/11 07:15:26;;;;;;;;;;;;;;;11.15;79.03;97276.88;5095634;28;19924;-64
2024/02/11 07:17:55;;;;;;;;;;;;;;;11.12;79.59;97270.19;5095784;28;19927;-64
2024/02/11 07:20:23;;;;;;;;;;;;;;;11.10;79.63;97283.91;5095531;28;19924;-64
2024/02/11 07:22:52;;;;;;;;;;;;;;;11.08;80.00;97280.59;5095199;28;19920;-64
2024/02/11 07:25:21;;;;;;;;;;;;;;;11.03;80.84;97274.84;5093793;28;20280;-63
2024/02/11 07:27:50;;;;;;;;;;;;;;;11.01;81.12;97279.19;5095102;28;19920;-64
2024/02/11 07:30:19;;;;;;;;;;;;;;;10.98;81.34;97276.75;5095273;28;20255;-63
2024/02/11 07:32:47;;;;;;;;;;;;;;;10.94;81.51;97283.69;5095527;28;20301;-64
2024/02/11 07:35:17;;;;;;;;;;;;;;;10.89;82.09;97269.47;5094984;28;19923;-64
2024/02/11 07:37:46;;;;;;;;;;;;;;;10.86;82.34;97272.97;5094949;28;19928;-64
2024/02/11 07:40:16;;;;;;;;;;;;;;;10.85;82.36;97278.13;5094056;28;19926;-64
2024/02/11 07:42:45;;;;;;;;;;;;;;;10.86;82.56;97274.69;5093837;28;19947;-63
2024/02/11 07:45:16;;;;;;;;;;;;;;;10.85;82.66;97273.00;5098857;28;19926;-63
2024/02/11 07:47:47;;;;;;;;;;;;;;;10.84;82.78;97276.47;5113461;28;19919;-63
2024/02/11 07:50:18;;;;;;;;;;;;;;;10.81;82.75;97266.38;5104917;28;19926;-63
2024/02/11 07:52:47;;;;;;;;;;;;;;;10.81;82.92;97276.59;5094220;28;19930;-63
2024/02/11 07:55:16;;;;;;;;;;;;;;;10.80;82.81;97285.16;5094504;28;19920;-64
2024/02/11 07:57:46;;;;;;;;;;;;;;;10.78;82.98;97275.84;5094872;28;19920;-64
2024/02/11 08:00:21;;;;;;;;;;;;;;;10.81;82.84;97274.88;5094865;28;19924;-63
2024/02/11 08:02:52;;;;;;;;;;;;;;;10.78;82.75;97268.19;5094885;28;19945;-64
2024/02/11 08:05:22;;;;;;;;;;;;;;;10.82;82.93;97268.06;5093860;28;20383;-63
2024/02/11 08:07:52;;;;;;;;;;;;;;;10.82;82.98;97275.72;5093651;28;19995;-64
2024/02/11 08:10:22;;;;;;;;;;;;;;;10.81;82.88;97271.50;5094985;28;19961;-63
2024/02/11 08:12:52;;;;;;;;;;;;;;;10.81;83.02;97266.38;5093594;28;19920;-64
2024/02/11 08:15:23;;;;;;;;;;;;;;;10.78;83.20;97273.28;5094466;28;19920;-63
2024/02/11 08:17:52;;;;;;;;;;;;;;;10.76;83.44;97269.13;5094906;28;20034;-64
2024/02/11 08:20:21;;;;;;;;;;;;;;;10.77;83.49;97273.34;5094922;28;19989;-63
2024/02/11 08:22:49;;;;;;;;;;;;;;;10.74;83.70;97276.84;5094448;28;19927;-64
2024/02/11 08:25:18;;;;;;;;;;;;;;;10.72;83.62;97273.50;5094051;28;20331;-64
2024/02/11 08:27:47;;;;;;;;;;;;;;;10.75;83.74;97273.41;5094111;28;19924;-64
2024/02/11 08:30:16;;;;;;;;;;;;;;;10.76;84.03;97269.97;5094376;28;19984;-64
2024/02/11 08:32:46;;;;;;;;;;;;;;;10.75;84.14;97273.41;5094985;28;20389;-64
2024/02/11 08:35:15;;;;;;;;;;;;;;;10.75;84.05;97273.41;5094294;28;19935;-64
2024/02/11 08:37:44;;;;;;;;;;;;;;;10.72;84.28;97273.50;5093650;28;20452;-63
2024/02/11 08:40:13;;;;;;;;;;;;;;;10.70;84.67;97270.19;5093076;28;20022;-64
2024/02/11 08:42:42;;;;;;;;;;;;;;;10.71;84.61;97269.31;5094359;28;19926;-64
2024/02/11 08:45:11;;;;;;;;;;;;;;;10.71;84.91;97284.63;5093937;28;19927;-63
2024/02/11 08:47:40;;;;;;;;;;;;;;;10.69;84.97;97273.66;5093912;28;19920;-63
2024/02/11 08:50:12;;;;;;;;;;;;;;;10.67;85.20;97267.78;5094290;28;20369;-63
2024/02/11 08:52:42;;;;;;;;;;;;;;;10.67;85.71;97280.53;5092649;28;20358;-63
2024/02/11 08:55:11;;;;;;;;;;;;;;;10.64;85.20;97278.09;5093878;28;19920;-63
2024/02/11 08:57:39;;;;;;;;;;;;;;;10.62;85.54;97279.06;5094086;28;20006;-64
2024/02/11 09:00:14;;;;;;;;;;;;;;;10.63;85.69;97273.88;5096127;28;19920;-64
2024/02/11 09:02:43;;;;;;;;;;;;;;;10.64;85.64;97272.16;5097116;28;19920;-63
2024/02/11 09:05:13;;;;;;;;;;;;;;;10.61;86.26;97268.00;5113824;28;20014;-64
2024/02/11 09:07:43;;;;;;;;;;;;;;;10.63;86.12;97273.03;5097961;28;19920;-64
2024/02/11 09:10:14;;;;;;;;;;;;;;;10.61;86.24;97279.94;5096938;28;19920;-64
2024/02/11 09:12:43;;;;;;;;;;;;;;;10.59;86.50;97276.63;5097006;28;20019;-63
2024/02/11 09:15:14;;;;;;;;;;;;;;;10.59;86.43;97280.00;5096593;28;19951;-63
2024/02/11 09:17:46;;;;;;;;;;;;;;;10.60;86.72;97285.94;5098068;28;19953;-63
2024/02/11 09:20:18;;;;;;;;;;;;;;;10.60;87.02;97289.31;5097535;28;20385;-63
2024/02/11 09:22:47;;;;;;;;;;;;;;;10.56;87.24;97280.13;5098031;28;20366;-63
2024/02/11 09:25:15;;;;;;;;;;;;;;;10.53;87.65;97282.78;5097332;28;20416;-63
2024/02/11 09:27:44;;;;;;;;;;;;;;;10.53;87.76;97287.88;5097804;28;19920;-63
2024/02/11 09:30:15;;;;;;;;;;;;;;;10.48;88.15;97282.16;5097418;28;20501;-63
2024/02/11 09:32:46;;;;;;;;;;;;;;;10.47;88.32;97289.84;5097742;28;20420;-63
2024/02/11 09:35:20;;;;;;;;;;;;;;;10.47;88.45;97290.69;5097633;28;19920;-63
2024/02/11 09:37:51;;;;;;;;;;;;;;;10.47;88.81;97283.03;5096194;28;19928;-63
2024/02/11 09:40:20;;;;;;;;;;;;;;;10.49;88.97;97283.78;5097537;28;19920;-63
2024/02/11 09:42:50;;;;;;;;;;;;;;;10.51;88.89;97288.84;5097476;28;20018;-63
2024/02/11 09:45:20;;;;;;;;;;;;;;;10.50;88.80;97290.56;5096830;28;20316;-63
2024/02/11 09:47:50;;;;;;;;;;;;;;;10.47;89.16;97283.03;5097491;28;20282;-63
2024/02/11 09:50:23;;;;;;;;;;;;;;;10.48;89.42;97289.81;5097359;28;19923;-63
2024/02/11 09:52:52;;;;;;;;;;;;;;;10.48;89.66;97292.34;5096093;28;19955;-63
2024/02/11 09:55:21;;;;;;;;;;;;;;;10.46;89.67;97293.31;5097158;28;19942;-63
2024/02/11 09:57:50;;;;;;;;;;;;;;;10.45;89.62;97284.81;5097140;28;19920;-63
2024/02/11 10:00:20;;;;;;;;;;;;;;;10.48;89.91;97289.81;5096984;28;20047;-63
2024/02/11 10:02:50;;;;;;;;;;;;;;;10.52;89.97;97288.78;5096739;28;19924;-63
2024/02/11 10:05:24;;;;;;;;;;;;;;;10.53;89.99;97287.88;5097098;28;20341;-63
2024/02/11 10:07:55;;;;;;;;;;;;;;;10.54;90.13;97284.44;5095706;28;19929;-63
2024/02/11 10:10:24;;;;;;;;;;;;;;;10.56;90.20;97286.94;5096738;28;19923;-63
2024/02/11 10:12:52;;;;;;;;;;;;;;;10.61;90.32;97285.03;5095968;28;19966;-63
2024/02/11 10:15:21;;;;;;;;;;;;;;;10.61;90.01;97280.78;5096878;28;19927;-63
2024/02/11 10:17:49;;;;;;;;;;;;;;;10.63;90.24;97281.53;5096725;28;19932;-63
2024/02/11 10:20:18;;;;;;;;;;;;;;;10.61;90.49;97280.78;5096977;28;19920;-63
2024/02/11 10:22:48;;;;;;;;;;;;;;;10.63;90.35;97273.88;5096712;28;19920;-63
2024/02/11 10:25:18;;;;;;;;;;;;;;;10.68;90.46;97266.88;5096643;28;19920;-63
2024/02/11 10:27:46;;;;;;;;;;;;;;;10.68;90.72;97277.09;5096321;28;20310;-63
2024/02/11 10:30:15;;;;;;;;;;;;;;;10.69;90.82;97273.66;5095247;28;19965;-63
2024/02/11 10:32:44;;;;;;;;;;;;;;;10.73;90.84;97270.09;5096254;28;20285;-63
2024/02/11 10:35:14;;;;;;;;;;;;;;;10.77;90.75;97265.69;5096147;28;20031;-63
2024/02/11 10:37:46;;;;;;;;;;;;;;;10.80;91.01;97265.56;5096278;28;19927;-63
2024/02/11 10:40:25;;;;;;;;;;;;;;;10.80;91.18;97252.00;5096477;28;19920;-64
2024/02/11 10:42:55;;;;;;;;;;;;;;;10.86;91.08;97255.13;5096308;28;19920;-64
2024/02/11 10:45:25;;;;;;;;;;;;;;;10.89;90.69;97255.00;5096372;28;19924;-63
2024/02/11 10:47:53;;;;;;;;;;;;;;;10.92;90.74;97259.94;5096178;28;19927;-63
2024/02/11 10:50:22;;;;;;;;;;;;;;;10.94;90.81;97252.25;5094833;28;19927;-64
2024/02/11 10:52:52;;;;;;;;;;;;;;;10.95;90.64;97248.78;5094886;28;19920;-64
2024/02/11 10:55:26;;;;;;;;;;;;;;;10.98;90.89;97256.31;5096252;28;19952;-63
2024/02/11 10:57:54;;;;;;;;;;;;;;;10.99;90.91;97251.16;5096122;28;19963;-63
2024/02/11 11:00:24;;;;;;;;;;;;;;;10.96;91.06;97260.66;5095849;28;19920;-63
2024/02/11 11:02:54;;;;;;;;;;;;;;;10.96;90.89;97256.41;5095598;28;20456;-63
2024/02/11 11:05:25;;;;;;;;;;;;;;;10.97;91.08;97257.22;5095460;28;20433;-63
2024/02/11 11:07:56;;;;;;;;;;;;;;;10.96;91.24;97260.66;5096084;28;19920;-63
2024/02/11 11:10:29;;;;;;;;;;;;;;;10.98;91.25;97253.78;5108172;28;19927;-63
2024/02/11 11:12:59;;;;;;;;;;;;;;;10.97;91.13;97255.50;5116158;28;19927;-63
2024/02/11 11:15:31;;;;;;;;;;;;;;;10.97;91.26;97252.94;5114626;28;19927;-63
2024/02/11 11:18:01;;;;;;;;;;;;;;;10.97;91.69;97257.22;5115620;28;20396;-63
2024/02/11 11:20:33;;;;;;;;;;;;;;;10.97;92.07;97259.75;5116017;28;19923;-63
2024/02/11 11:23:03;;;;;;;;;;;;;;;10.96;92.46;97255.56;5116079;28;19928;-63
2024/02/11 11:25:32;;;;;;;;;;;;;;;10.95;92.72;97251.34;5114326;28;19924;-63
2024/02/11 11:28:12;;;;;;;;;;;;;;;10.96;93.00;97253.00;5115852;28;20319;-63
2024/02/11 11:30:40;;;;;;;;;;;;;;;10.96;93.57;97250.47;5116117;27;19924;-63
2024/02/11 11:33:10;;;;;;;;;;;;;;;10.99;93.85;97252.91;5115489;28;19924;-63
2024/02/11 11:35:39;;;;;;;;;;;;;;;10.99;94.06;97250.34;5115671;28;19923;-63
2024/02/11 11:38:08;;;;;;;;;;;;;;;10.96;94.16;97247.91;5115608;28;19926;-63
2024/02/11 11:40:39;;;;;;;;;;;;;;;10.94;94.22;97247.16;5115532;28;19926;-63
2024/02/11 11:43:14;;;;;;;;;;;;;;;10.94;94.27;97247.16;5115146;28;19920;-63
2024/02/11 11:45:55;;;;;;;;;;;;;;;10.93;94.38;97251.41;5115572;28;20067;-63
2024/02/11 11:48:23;;;;;;;;;;;;;;;10.94;94.73;97252.25;5115143;28;19927;-63
2024/02/11 11:50:56;;;;;;;;;;;;;;;10.93;94.70;97246.31;5115495;28;20338;-63
2024/02/11 11:53:25;;;;;;;;;;;;;;;10.94;94.88;97247.97;5115362;28;20436;-63
2024/02/11 11:55:56;;;;;;;;;;;;;;;10.97;94.82;97242.72;5114031;28;19919;-63
2024/02/11 11:58:25;;;;;;;;;;;;;;;10.98;95.18;97243.56;5115874;28;20295;-63
2024/02/11 12:00:55;;;;;;;;;;;;;;;10.98;95.03;97241.84;5115221;28;19977;-63
2024/02/11 12:03:23;;;;;;;;;;;;;;;11.01;94.90;97243.44;5115173;28;19966;-63
2024/02/11 12:05:52;;;;;;;;;;;;;;;11.01;95.09;97236.63;5115073;28;19950;-63
2024/02/11 12:08:21;;;;;;;;;;;;;;;11.03;95.14;97231.44;5115102;28;19920;-63
2024/02/11 12:11:02;;;;;;;;;;;;;;;11.03;94.77;97227.19;5115094;28;19920;-64
2024/02/11 12:13:32;;;;;;;;;;;;;;;11.04;95.12;97235.66;5115073;28;19924;-64
2024/02/11 12:16:02;;;;;;;;;;;;;;;11.02;94.97;97234.88;5115006;28;19931;-63
2024/02/11 12:18:31;;;;;;;;;;;;;;;11.03;95.04;97228.91;5114651;28;19931;-63
2024/02/11 12:21:00;;;;;;;;;;;;;;;11.03;94.85;97234.00;5114991;28;19920;-63
2024/02/11 12:23:31;;;;;;;;;;;;;;;11.03;94.71;97236.56;5113030;28;20293;-63
2024/02/11 12:26:03;;;;;;;;;;;;;;;11.05;94.84;97230.50;5114655;28;19926;-63
2024/02/11 12:28:32;;;;;;;;;;;;;;;11.04;94.70;97228.00;5114966;28;19923;-63
2024/02/11 12:31:05;;;;;;;;;;;;;;;11.05;94.55;97229.66;5114600;28;19959;-63
2024/02/11 12:33:36;;;;;;;;;;;;;;;11.04;94.76;97222.88;5113671;28;20289;-63
2024/02/11 12:36:09;;;;;;;;;;;;;;;11.04;94.65;97225.44;5114340;28;19920;-63
2024/02/11 12:38:38;;;;;;;;;;;;;;;11.05;94.53;97219.44;5114487;28;20008;-63
2024/02/11 12:41:09;;;;;;;;;;;;;;;11.07;94.51;97225.31;5114885;28;19988;-63
2024/02/11 12:43:39;;;;;;;;;;;;;;;11.07;94.46;97222.75;5096671;28;20320;-63
2024/02/11 12:46:08;;;;;;;;;;;;;;;11.04;94.40;97228.00;5114321;28;19927;-63
2024/02/11 12:48:37;;;;;;;;;;;;;;;11.03;94.31;97221.25;5114550;28;19919;-63
2024/02/11 12:51:06;;;;;;;;;;;;;;;11.03;94.58;97221.25;5114894;28;20366;-63
2024/02/11 12:53:37;;;;;;;;;;;;;;;11.02;94.80;97225.50;5114223;28;19920;-63
2024/02/11 12:56:07;;;;;;;;;;;;;;;11.02;94.82;97219.56;5114307;28;20361;-63
2024/02/11 12:58:37;;;;;;;;;;;;;;;10.99;94.97;97232.47;5114611;28;20327;-63
2024/02/11 13:01:09;;;;;;;;;;;;;;;10.98;95.34;97218.06;5114608;28;19920;-63